Terminal Aerodrome Forecast
Issued by NWS

Home | Current Version | Previous Version | Text Only | Print | Product List | Glossary On
Versions: 1 2 3 4 5 6 7 8 9 10 11 12 13 14 15 16 17 18 19 20 21
630
FTUS46 KPDT 122339
TAFDLS
TAF
KDLS 122339Z 1300/1324 31007KT 6SM -SHRA BKN040 OVC060
     FM130400 30006KT P6SM SCT040 BKN070
     FM130900 29005KT 6SM BR FEW005 BKN035 BKN090
     FM131800 31004KT P6SM SCT050 OVC100
     FM132100 31005KT P6SM -SHRA BKN035 OVC050=

USA.gov is the U.S. government's official web portal to all federal, state and local government web resources and services.